createdAt,value
2018-12-14T00:00:37.909Z,0.00
2018-12-14T00:01:37.822Z,0.00
2018-12-14T00:02:37.819Z,0.00
2018-12-14T00:03:37.822Z,0.00
2018-12-14T00:04:37.879Z,0.00
2018-12-14T00:05:37.987Z,0.00
2018-12-14T00:06:37.910Z,0.00
2018-12-14T00:07:37.902Z,0.00
2018-12-14T00:08:37.925Z,0.00
2018-12-14T00:09:37.941Z,0.00
2018-12-14T00:10:38.103Z,0.00
2018-12-14T00:11:37.971Z,0.00
2018-12-14T00:12:37.985Z,0.00
2018-12-14T00:13:37.993Z,0.00
2018-12-14T00:14:38.005Z,0.00
2018-12-14T00:15:38.156Z,0.00
2018-12-14T00:16:38.040Z,0.00
2018-12-14T00:17:38.079Z,0.00
2018-12-14T00:18:38.090Z,0.00
2018-12-14T00:19:38.114Z,0.00
2018-12-14T00:20:38.207Z,0.00
2018-12-14T00:21:38.118Z,0.00
2018-12-14T00:22:38.147Z,0.00
2018-12-14T00:23:38.148Z,0.00
2018-12-14T00:24:38.272Z,0.00
2018-12-14T00:25:38.173Z,0.00
2018-12-14T00:26:38.199Z,0.00
2018-12-14T00:27:38.204Z,0.00
2018-12-14T00:28:38.239Z,0.00
2018-12-14T00:29:38.416Z,0.00
2018-12-14T00:30:38.306Z,0.00
2018-12-14T00:31:38.287Z,0.00
2018-12-14T00:32:38.289Z,0.00
2018-12-14T00:33:38.315Z,0.00
2018-12-14T00:34:38.450Z,0.00
2018-12-14T00:35:38.332Z,0.00
2018-12-14T00:36:38.376Z,0.00
2018-12-14T00:37:38.373Z,0.00
2018-12-14T00:38:38.418Z,0.00
2018-12-14T00:39:38.574Z,0.00
2018-12-14T00:40:38.440Z,0.00
2018-12-14T00:41:38.458Z,0.00
2018-12-14T00:42:38.504Z,0.00
2018-12-14T00:43:38.506Z,0.00
2018-12-14T00:44:38.646Z,0.00
2018-12-14T00:45:38.528Z,0.00
2018-12-14T00:46:38.515Z,0.00
2018-12-14T00:47:38.545Z,0.00
2018-12-14T00:48:38.544Z,0.00
2018-12-14T00:49:38.674Z,0.00
2018-12-14T00:50:38.573Z,0.00
2018-12-14T00:51:38.594Z,0.00
2018-12-14T00:52:38.617Z,0.00
2018-12-14T00:53:38.644Z,0.00
2018-12-14T00:54:38.797Z,0.00
2018-12-14T00:55:38.685Z,0.00
2018-12-14T00:56:38.704Z,0.00
2018-12-14T00:57:38.711Z,0.00
2018-12-14T00:58:38.739Z,0.00
2018-12-14T00:59:38.844Z,0.00
2018-12-14T01:00:38.772Z,0.00
2018-12-14T01:01:38.763Z,0.00
2018-12-14T01:02:38.769Z,0.00
2018-12-14T01:03:38.795Z,0.00
2018-12-14T01:04:38.912Z,0.00
2018-12-14T01:05:38.838Z,0.00
2018-12-14T01:06:38.839Z,0.00
2018-12-14T01:07:38.869Z,0.00
2018-12-14T01:08:38.927Z,0.00
2018-12-14T01:09:38.977Z,0.00
2018-12-14T01:10:38.899Z,0.00
2018-12-14T01:11:38.910Z,0.00
2018-12-14T01:12:38.927Z,0.00
2018-12-14T01:13:38.972Z,0.00
2018-12-14T01:14:39.071Z,0.00
2018-12-14T01:15:38.993Z,0.00
2018-12-14T01:16:39.009Z,0.00
2018-12-14T01:17:39.007Z,0.00
2018-12-14T01:18:39.053Z,0.00
2018-12-14T01:19:39.134Z,0.00
2018-12-14T01:20:39.083Z,0.00
2018-12-14T01:21:39.100Z,0.00
2018-12-14T01:22:39.100Z,0.00
2018-12-14T01:23:39.162Z,0.00
2018-12-14T01:24:39.292Z,0.00
2018-12-14T01:25:39.133Z,0.00
2018-12-14T01:26:39.167Z,0.00
2018-12-14T01:27:39.187Z,0.00
2018-12-14T01:28:39.190Z,0.00
2018-12-14T01:29:39.454Z,0.00
2018-12-14T01:30:39.213Z,0.00
2018-12-14T01:31:39.237Z,0.00
2018-12-14T01:32:39.252Z,0.00
2018-12-14T01:33:39.273Z,0.00
2018-12-14T01:34:39.392Z,0.00
2018-12-14T01:35:39.288Z,0.00
2018-12-14T01:36:39.316Z,0.00
2018-12-14T01:37:39.344Z,0.00
2018-12-14T01:38:39.347Z,0.00
2018-12-14T01:39:39.488Z,0.00
2018-12-14T01:40:39.381Z,0.00
2018-12-14T01:41:39.380Z,0.00
2018-12-14T01:43:39.427Z,0.00
2018-12-14T01:44:39.547Z,0.00
2018-12-14T01:45:39.465Z,0.00
2018-12-14T01:46:39.455Z,0.00
2018-12-14T01:47:39.492Z,0.00
2018-12-14T01:48:39.489Z,0.00
2018-12-14T01:49:39.724Z,0.00
2018-12-14T01:50:39.559Z,0.00
2018-12-14T01:51:39.573Z,0.00
2018-12-14T01:52:39.555Z,0.00
2018-12-14T01:53:39.601Z,0.00
2018-12-14T01:54:39.696Z,0.00
2018-12-14T01:55:39.616Z,0.00
2018-12-14T01:56:39.636Z,0.00
2018-12-14T01:57:39.639Z,0.00
2018-12-14T01:58:39.668Z,0.00
2018-12-14T01:59:39.780Z,0.00
2018-12-14T02:00:39.691Z,0.00
2018-12-14T02:01:39.701Z,0.00
2018-12-14T02:02:39.709Z,0.00
2018-12-14T02:03:39.733Z,0.00
2018-12-14T02:04:39.866Z,0.00
2018-12-14T02:05:39.766Z,0.00
2018-12-14T02:06:39.780Z,0.00
2018-12-14T02:07:39.790Z,0.00
2018-12-14T02:08:39.823Z,0.00
2018-12-14T02:09:40.075Z,0.00
2018-12-14T02:10:39.850Z,0.00
2018-12-14T02:11:39.866Z,0.00
2018-12-14T02:12:39.880Z,0.00
2018-12-14T02:13:39.895Z,0.00
2018-12-14T02:14:40.004Z,0.00
2018-12-14T02:15:39.938Z,0.00
2018-12-14T02:16:39.921Z,0.00
2018-12-14T02:17:39.940Z,0.00
2018-12-14T02:18:39.978Z,0.00
2018-12-14T02:19:40.074Z,0.00
2018-12-14T02:20:40.019Z,0.00
2018-12-14T02:21:40.013Z,0.00
2018-12-14T02:22:40.050Z,0.00
2018-12-14T02:23:40.058Z,0.00
2018-12-14T02:24:40.144Z,0.00
2018-12-14T02:25:40.122Z,0.00
2018-12-14T02:26:40.099Z,0.00
2018-12-14T02:27:40.114Z,0.00
2018-12-14T02:28:40.115Z,0.00
2018-12-14T02:29:40.222Z,0.00
2018-12-14T02:30:40.160Z,0.00
2018-12-14T02:31:40.153Z,0.00
2018-12-14T02:32:40.196Z,0.00
2018-12-14T02:33:40.190Z,0.00
2018-12-14T02:34:40.324Z,0.00
2018-12-14T02:35:40.237Z,0.00
2018-12-14T02:36:40.238Z,0.00
2018-12-14T02:37:40.275Z,0.00
2018-12-14T02:38:40.284Z,0.00
2018-12-14T02:39:40.427Z,0.00
2018-12-14T02:40:40.313Z,0.00
2018-12-14T02:41:40.332Z,0.00
2018-12-14T02:42:40.330Z,0.00
2018-12-14T02:43:40.361Z,0.00
2018-12-14T02:44:40.420Z,0.00
2018-12-14T02:45:40.391Z,0.00
2018-12-14T02:46:40.391Z,0.00
2018-12-14T02:47:40.413Z,0.00
2018-12-14T02:48:40.440Z,0.00
2018-12-14T02:49:40.540Z,0.00
2018-12-14T02:50:40.453Z,0.00
2018-12-14T02:51:40.471Z,0.00
2018-12-14T02:52:40.503Z,0.00
2018-12-14T02:53:40.496Z,0.00
2018-12-14T02:54:40.583Z,0.00
2018-12-14T02:55:40.525Z,0.00
2018-12-14T02:56:40.564Z,0.00
2018-12-14T02:57:40.665Z,0.00
2018-12-14T02:58:40.585Z,0.00
2018-12-14T02:59:40.589Z,0.00
2018-12-14T03:00:40.611Z,0.00
2018-12-14T03:01:40.677Z,0.00
2018-12-14T03:02:40.751Z,0.00
2018-12-14T03:03:40.718Z,0.00
2018-12-14T03:04:40.668Z,0.00
2018-12-14T03:05:40.696Z,0.00
2018-12-14T03:06:40.702Z,0.00
2018-12-14T03:07:40.841Z,0.00
2018-12-14T03:08:40.747Z,0.00
2018-12-14T03:09:40.746Z,0.00
2018-12-14T03:10:40.758Z,0.00
2018-12-14T03:11:40.787Z,0.00
2018-12-14T03:12:40.895Z,0.00
2018-12-14T03:13:40.813Z,0.00
2018-12-14T03:14:40.838Z,0.00
2018-12-14T03:15:40.892Z,0.00
2018-12-14T03:16:40.875Z,0.00
2018-12-14T03:17:40.913Z,0.00
2018-12-14T03:18:40.887Z,0.00
2018-12-14T03:19:40.893Z,0.00
2018-12-14T03:20:40.920Z,0.00
2018-12-14T03:21:40.936Z,0.00
2018-12-14T03:22:41.050Z,0.00
2018-12-14T03:23:40.976Z,0.00
2018-12-14T03:24:40.975Z,0.00
2018-12-14T03:25:40.987Z,0.00
2018-12-14T03:26:41.015Z,0.00
2018-12-14T03:27:41.153Z,0.00
2018-12-14T03:28:41.051Z,0.00
2018-12-14T03:29:41.067Z,0.00
2018-12-14T03:30:41.090Z,0.00
2018-12-14T03:31:41.086Z,0.00
2018-12-14T03:32:41.199Z,0.00
2018-12-14T03:33:41.172Z,0.00
2018-12-14T03:34:41.161Z,0.00
2018-12-14T03:35:41.167Z,0.00
2018-12-14T03:36:41.165Z,0.00
2018-12-14T03:37:41.219Z,0.00
2018-12-14T03:38:41.244Z,0.00
2018-12-14T03:39:41.206Z,0.00
2018-12-14T03:40:41.246Z,0.00
2018-12-14T03:41:41.293Z,0.00
2018-12-14T03:42:41.303Z,0.00
2018-12-14T03:43:41.273Z,0.00
2018-12-14T03:44:41.281Z,0.00
2018-12-14T03:45:41.293Z,0.00
2018-12-14T03:46:41.322Z,0.00
2018-12-14T03:47:41.372Z,0.00
2018-12-14T03:48:41.346Z,0.00
2018-12-14T03:49:41.373Z,0.00
2018-12-14T03:50:41.389Z,0.00
2018-12-14T03:51:41.409Z,0.00
2018-12-14T03:52:41.508Z,0.00
2018-12-14T03:53:41.446Z,0.00
2018-12-14T03:54:41.441Z,0.00
2018-12-14T03:55:41.457Z,0.00
2018-12-14T03:56:41.480Z,0.00
2018-12-14T03:57:41.692Z,0.00
2018-12-14T03:58:41.491Z,0.00
2018-12-14T03:59:41.522Z,0.00
2018-12-14T04:00:41.526Z,0.00
2018-12-14T04:01:41.558Z,0.00
2018-12-14T04:02:41.656Z,0.00
2018-12-14T04:03:41.586Z,0.00
2018-12-14T04:04:41.594Z,0.00
2018-12-14T04:05:41.620Z,0.00
2018-12-14T04:06:41.682Z,0.00
2018-12-14T04:07:41.740Z,0.00
2018-12-14T04:08:41.714Z,0.00
2018-12-14T04:09:41.669Z,0.00
2018-12-14T04:10:41.676Z,0.00
2018-12-14T04:11:41.694Z,0.00
2018-12-14T04:12:42.218Z,0.00
2018-12-14T04:13:41.718Z,0.00
2018-12-14T04:15:41.757Z,0.00
2018-12-14T04:16:41.787Z,0.00
2018-12-14T04:17:41.926Z,0.00
2018-12-14T04:18:41.800Z,0.00
2018-12-14T04:19:41.815Z,0.00
2018-12-14T04:20:41.836Z,0.00
2018-12-14T04:21:41.840Z,0.00
2018-12-14T04:22:42.055Z,0.00
2018-12-14T04:23:41.868Z,0.00
2018-12-14T04:24:41.902Z,0.00
2018-12-14T04:25:41.915Z,0.00
2018-12-14T04:26:41.944Z,0.00
2018-12-14T04:27:42.001Z,0.00
2018-12-14T04:28:41.968Z,0.00
2018-12-14T04:29:41.976Z,0.00
2018-12-14T04:30:41.989Z,0.00
2018-12-14T04:31:41.997Z,0.00
2018-12-14T04:32:42.120Z,0.00
2018-12-14T04:33:42.026Z,0.00
2018-12-14T04:34:42.047Z,0.00
2018-12-14T04:35:42.065Z,0.00
2018-12-14T04:36:42.100Z,0.00
2018-12-14T04:37:42.211Z,0.00
2018-12-14T04:38:42.098Z,0.00
2018-12-14T04:39:42.131Z,0.00
2018-12-14T04:40:42.133Z,0.00
2018-12-14T04:41:42.155Z,0.00
2018-12-14T04:42:48.658Z,0.00
2018-12-14T04:43:42.173Z,0.00
2018-12-14T04:44:42.216Z,0.00
2018-12-14T04:45:42.223Z,0.00
2018-12-14T04:46:42.248Z,0.00
2018-12-14T04:47:42.293Z,0.00
2018-12-14T04:48:42.268Z,0.00
2018-12-14T04:49:42.317Z,0.00
2018-12-14T04:50:42.312Z,0.00
2018-12-14T04:51:42.311Z,0.00
2018-12-14T04:52:42.417Z,0.00
2018-12-14T04:53:42.344Z,0.00
2018-12-14T04:54:42.347Z,0.00
2018-12-14T04:55:42.386Z,0.00
2018-12-14T04:56:42.376Z,0.00
2018-12-14T04:57:42.504Z,0.00
2018-12-14T04:58:42.417Z,0.00
2018-12-14T04:59:42.421Z,0.00
2018-12-14T05:00:42.452Z,0.00
2018-12-14T05:01:42.471Z,0.00
2018-12-14T05:02:42.476Z,0.00
2018-12-14T05:03:42.674Z,0.00
2018-12-14T05:04:42.503Z,0.00
2018-12-14T05:05:42.532Z,0.00
2018-12-14T05:06:42.533Z,0.00
2018-12-14T05:07:42.560Z,0.00
2018-12-14T05:08:42.757Z,0.00
2018-12-14T05:09:42.567Z,0.00
2018-12-14T05:10:42.590Z,0.00
2018-12-14T05:11:42.598Z,0.00
2018-12-14T05:12:42.627Z,0.00
2018-12-14T05:13:42.696Z,0.00
2018-12-14T05:14:42.641Z,0.00
2018-12-14T05:15:42.672Z,0.00
2018-12-14T05:16:42.677Z,0.00
2018-12-14T05:17:42.703Z,0.00
2018-12-14T05:18:42.809Z,0.00
2018-12-14T05:19:42.781Z,0.00
2018-12-14T05:20:42.755Z,0.00
2018-12-14T05:21:42.742Z,0.00
2018-12-14T05:22:42.813Z,0.00
2018-12-14T05:23:42.830Z,0.00
2018-12-14T05:24:42.809Z,0.00
2018-12-14T05:25:42.866Z,0.00
2018-12-14T05:26:42.819Z,0.00
2018-12-14T05:27:42.855Z,0.00
2018-12-14T05:28:42.953Z,0.00
2018-12-14T05:29:42.876Z,0.00
2018-12-14T05:30:42.903Z,0.00
2018-12-14T05:31:42.904Z,0.00
2018-12-14T05:32:42.919Z,0.00
2018-12-14T05:33:43.043Z,0.00
2018-12-14T05:34:42.945Z,0.00
2018-12-14T05:35:42.980Z,0.00
2018-12-14T05:36:42.974Z,0.00
2018-12-14T05:37:43.007Z,0.00
2018-12-14T05:38:43.055Z,0.00
2018-12-14T05:39:43.032Z,0.00
2018-12-14T05:40:43.032Z,0.00
2018-12-14T05:41:43.075Z,0.00
2018-12-14T05:42:43.065Z,0.00
2018-12-14T05:43:43.134Z,0.00
2018-12-14T05:44:43.096Z,0.00
2018-12-14T05:45:43.162Z,0.00
2018-12-14T05:46:43.234Z,0.00
2018-12-14T05:47:43.151Z,0.00
2018-12-14T05:48:43.168Z,0.00
2018-12-14T05:49:43.162Z,0.00
2018-12-14T05:50:43.200Z,0.00
2018-12-14T05:51:43.258Z,0.00
2018-12-14T05:52:43.227Z,0.00
2018-12-14T05:53:43.237Z,0.00
2018-12-14T05:54:43.250Z,0.00
2018-12-14T05:55:43.348Z,0.00
2018-12-14T05:56:43.382Z,0.00
2018-12-14T05:57:43.283Z,0.00
2018-12-14T05:58:43.331Z,0.00
2018-12-14T05:59:43.327Z,0.00
2018-12-14T06:00:43.360Z,0.00
2018-12-14T06:01:43.400Z,0.00
2018-12-14T06:02:43.464Z,0.00
2018-12-14T06:03:43.382Z,0.00
2018-12-14T06:04:43.391Z,0.00
2018-12-14T06:05:43.400Z,0.00
2018-12-14T06:06:43.435Z,0.00
2018-12-14T06:07:43.554Z,0.00
2018-12-14T06:08:43.519Z,0.00
2018-12-14T06:09:43.481Z,0.00
2018-12-14T06:10:43.498Z,0.00
2018-12-14T06:11:43.499Z,0.00
2018-12-14T06:12:43.629Z,0.00
2018-12-14T06:13:43.542Z,0.00
2018-12-14T06:14:43.555Z,0.00
2018-12-14T06:15:43.571Z,0.00
2018-12-14T06:16:43.578Z,0.00
2018-12-14T06:17:43.680Z,0.00
2018-12-14T06:18:43.616Z,0.00
2018-12-14T06:19:43.611Z,0.00
2018-12-14T06:20:43.658Z,0.00
2018-12-14T06:21:43.705Z,0.00
2018-12-14T06:22:43.753Z,0.00
2018-12-14T06:23:43.678Z,0.00
2018-12-14T06:24:43.715Z,0.00
2018-12-14T06:25:43.719Z,0.00
2018-12-14T06:26:43.731Z,0.00
2018-12-14T06:27:43.835Z,0.00
2018-12-14T06:28:43.811Z,0.00
2018-12-14T06:29:43.783Z,0.00
2018-12-14T06:30:43.788Z,0.00
2018-12-14T06:31:43.823Z,0.00
2018-12-14T06:32:43.912Z,0.00
2018-12-14T06:33:43.825Z,0.00
2018-12-14T06:34:43.869Z,0.00
2018-12-14T06:35:43.847Z,0.00
2018-12-14T06:36:43.886Z,0.00
2018-12-14T06:37:44.041Z,0.00
2018-12-14T06:38:43.905Z,0.00
2018-12-14T06:39:43.922Z,0.00
2018-12-14T06:40:43.921Z,0.00
2018-12-14T06:41:43.998Z,0.00
2018-12-14T06:42:44.054Z,0.00
2018-12-14T06:43:43.990Z,0.00
2018-12-14T06:44:44.000Z,0.00
2018-12-14T06:45:43.997Z,0.00
2018-12-14T06:46:44.032Z,0.00
2018-12-14T06:47:44.088Z,0.00
2018-12-14T06:48:44.159Z,0.00
2018-12-14T06:49:44.076Z,0.00
2018-12-14T06:50:44.076Z,0.00
2018-12-14T06:51:44.151Z,0.00
2018-12-14T06:52:44.104Z,0.00
2018-12-14T06:53:44.227Z,0.00
2018-12-14T06:54:44.139Z,0.00
2018-12-14T06:55:44.148Z,0.00
2018-12-14T06:56:44.184Z,0.00
2018-12-14T06:57:44.194Z,0.00
2018-12-14T06:58:44.245Z,0.00
2018-12-14T06:59:44.235Z,0.00
2018-12-14T07:00:44.220Z,0.00
2018-12-14T07:01:44.253Z,0.00
2018-12-14T07:02:44.266Z,0.00
2018-12-14T07:03:44.325Z,0.00
2018-12-14T07:04:44.282Z,0.00
2018-12-14T07:05:44.311Z,0.00
2018-12-14T07:06:44.305Z,0.00
2018-12-14T07:07:44.378Z,0.00
2018-12-14T07:08:44.391Z,0.00
2018-12-14T07:09:44.349Z,0.00
2018-12-14T07:10:44.397Z,0.00
2018-12-14T07:11:44.376Z,0.00
2018-12-14T07:12:44.419Z,0.00
2018-12-14T07:13:44.517Z,0.00
2018-12-14T07:14:44.443Z,0.00
2018-12-14T07:15:44.438Z,0.00
2018-12-14T07:16:44.470Z,0.00
2018-12-14T07:17:44.482Z,0.00
2018-12-14T07:18:44.507Z,0.00
2018-12-14T07:19:44.619Z,0.00
2018-12-14T07:20:44.519Z,0.00
2018-12-14T07:21:44.543Z,0.00
2018-12-14T07:22:44.551Z,0.00
2018-12-14T07:23:44.574Z,0.00
2018-12-14T07:24:44.680Z,0.00
2018-12-14T07:25:44.620Z,0.00
2018-12-14T07:26:44.598Z,0.00
2018-12-14T07:27:44.643Z,0.00
2018-12-14T07:28:44.627Z,0.00
2018-12-14T07:29:44.751Z,0.00
2018-12-14T07:30:44.653Z,0.00
2018-12-14T07:31:44.729Z,0.00
2018-12-14T07:32:44.751Z,0.00
2018-12-14T07:33:44.701Z,0.00
2018-12-14T07:34:44.817Z,0.00
2018-12-14T07:35:44.734Z,0.00
2018-12-14T07:36:44.766Z,0.00
2018-12-14T07:37:44.765Z,0.00
2018-12-14T07:38:48.080Z,0.00
2018-12-14T07:39:44.790Z,0.00
2018-12-14T07:40:45.016Z,0.00
2018-12-14T07:41:44.816Z,0.00
2018-12-14T07:42:44.847Z,0.00
2018-12-14T07:43:44.910Z,0.00
2018-12-14T07:44:45.020Z,0.00
2018-12-14T07:45:44.945Z,4.00
2018-12-14T07:46:44.903Z,0.00
2018-12-14T07:47:44.914Z,4.00
2018-12-14T07:48:44.996Z,0.00
2018-12-14T07:49:44.945Z,4.00
2018-12-14T07:50:45.062Z,4.00
2018-12-14T07:51:44.986Z,8.00
2018-12-14T07:52:44.989Z,8.00
2018-12-14T07:53:45.016Z,12.00
2018-12-14T07:54:45.030Z,12.00
2018-12-14T07:55:45.124Z,12.00
2018-12-14T07:56:45.061Z,20.00
2018-12-14T07:57:45.065Z,24.00
2018-12-14T07:58:45.136Z,28.00
2018-12-14T07:59:45.090Z,40.00
2018-12-14T08:00:45.201Z,48.00
2018-12-14T08:01:45.119Z,56.00
2018-12-14T08:02:45.129Z,68.00
2018-12-14T08:03:45.141Z,84.00
2018-12-14T08:04:45.212Z,100.00
2018-12-14T08:05:45.288Z,120.00
2018-12-14T08:06:45.181Z,136.00
2018-12-14T08:07:45.215Z,164.00
2018-12-14T08:08:45.207Z,188.00
2018-12-14T08:09:45.222Z,212.00
2018-12-14T08:10:45.358Z,244.00
2018-12-14T08:11:45.252Z,272.00
2018-12-14T08:12:45.288Z,312.00
2018-12-14T08:13:45.285Z,348.00
2018-12-14T08:14:45.317Z,388.00
2018-12-14T08:15:45.515Z,436.00
2018-12-14T08:16:45.330Z,480.00
2018-12-14T08:17:45.372Z,532.00
2018-12-14T08:18:45.372Z,588.00
2018-12-14T08:19:45.385Z,644.00
2018-12-14T08:20:45.390Z,704.00
2018-12-14T08:21:45.502Z,764.00
2018-12-14T08:22:45.427Z,832.00
2018-12-14T08:23:45.449Z,900.00
2018-12-14T08:24:45.465Z,972.00
2018-12-14T08:25:45.473Z,1044.00
2018-12-14T08:26:45.682Z,1124.00
2018-12-14T08:27:45.504Z,1200.00
2018-12-14T08:28:45.524Z,1280.00
2018-12-14T08:29:45.513Z,1360.00
2018-12-14T08:30:45.541Z,1444.00
2018-12-14T08:31:45.609Z,1584.00
2018-12-14T08:32:45.572Z,1996.00
2018-12-14T08:33:45.594Z,2272.00
2018-12-14T08:34:50.970Z,2364.00
2018-12-14T08:35:45.624Z,2464.00
2018-12-14T08:36:45.617Z,2804.00
2018-12-14T08:37:45.662Z,3296.00
2018-12-14T08:38:45.659Z,3472.00
2018-12-14T08:39:45.685Z,3436.00
2018-12-14T08:40:45.846Z,3252.00
2018-12-14T08:41:45.703Z,2960.00
2018-12-14T08:42:45.766Z,2700.00
2018-12-14T08:43:45.740Z,2560.00
2018-12-14T08:44:45.748Z,2620.00
2018-12-14T08:45:45.813Z,2696.00
2018-12-14T08:46:45.801Z,2776.00
2018-12-14T08:47:45.784Z,2856.00
2018-12-14T08:48:45.817Z,2932.00
2018-12-14T08:49:45.871Z,3012.00
2018-12-14T08:50:45.940Z,3092.00
2018-12-14T08:51:45.845Z,3172.00
2018-12-14T08:52:45.863Z,3256.00
2018-12-14T08:53:45.888Z,3352.00
2018-12-14T08:54:45.910Z,3452.00
2018-12-14T08:55:46.125Z,3540.00
2018-12-14T08:56:45.937Z,3624.00
2018-12-14T08:57:45.965Z,3716.00
2018-12-14T08:58:45.977Z,3804.00
2018-12-14T08:59:45.979Z,3892.00
2018-12-14T09:00:46.070Z,3980.00
2018-12-14T09:01:46.002Z,5228.00
2018-12-14T09:02:46.026Z,8276.00
2018-12-14T09:03:46.034Z,9960.00
2018-12-14T09:04:46.061Z,10316.00
2018-12-14T09:05:46.270Z,10692.00
2018-12-14T09:06:46.142Z,10984.00
2018-12-14T09:07:46.102Z,11244.00
2018-12-14T09:08:46.117Z,11476.00
2018-12-14T09:09:46.152Z,11684.00
2018-12-14T09:10:46.145Z,11872.00
2018-12-14T09:11:46.276Z,12228.00
2018-12-14T09:12:46.182Z,12748.00
2018-12-14T09:13:48.007Z,13300.00
2018-12-14T09:14:46.936Z,13740.00
2018-12-14T09:15:46.241Z,14068.00
2018-12-14T09:16:46.328Z,14272.00
2018-12-14T09:17:46.282Z,14496.00
2018-12-14T09:18:46.339Z,14720.00
2018-12-14T09:19:46.311Z,15136.00
2018-12-14T09:20:46.325Z,15520.00
2018-12-14T09:21:46.497Z,15840.00
2018-12-14T09:22:46.370Z,16288.00
2018-12-14T09:23:46.443Z,16768.00
2018-12-14T09:24:46.454Z,18016.00
2018-12-14T09:25:46.427Z,20960.00
2018-12-14T09:26:46.498Z,23936.00
2018-12-14T09:27:46.457Z,26816.00
2018-12-14T09:28:46.480Z,28992.00
2018-12-14T09:29:46.511Z,30720.00
2018-12-14T09:30:46.515Z,29568.00
2018-12-14T09:31:46.739Z,28064.00
2018-12-14T09:32:46.546Z,29248.00
2018-12-14T09:33:46.595Z,31808.00
2018-12-14T09:34:46.657Z,33888.00
2018-12-14T09:35:46.621Z,34976.00
2018-12-14T09:36:46.739Z,34272.00
2018-12-14T09:37:46.662Z,38496.00
2018-12-14T09:38:46.674Z,42528.00
2018-12-14T09:39:46.699Z,48896.00
2018-12-14T09:40:46.725Z,52672.00
2018-12-14T09:41:46.839Z,55168.00
2018-12-14T09:42:46.771Z,58528.00
2018-12-14T09:43:46.831Z,57024.00
2018-12-14T09:44:46.807Z,56160.00
2018-12-14T09:45:46.819Z,57088.00
2018-12-14T09:46:46.954Z,58240.00
2018-12-14T09:47:46.908Z,60256.00
2018-12-14T09:48:46.897Z,61856.00
2018-12-14T09:49:46.912Z,62368.00
2018-12-14T09:50:46.920Z,60896.00
2018-12-14T09:51:47.047Z,62784.00
2018-12-14T09:52:46.967Z,62400.00
2018-12-14T09:53:47.017Z,62688.00
2018-12-14T09:54:47.016Z,64032.00
2018-12-14T09:55:47.071Z,63744.00
2018-12-14T09:56:47.158Z,63296.00
2018-12-14T09:57:47.072Z,66848.00
2018-12-14T09:58:47.126Z,68576.00
2018-12-14T09:59:47.167Z,68640.00
2018-12-14T10:00:47.172Z,70400.00
2018-12-14T10:01:47.276Z,72224.00
2018-12-14T10:02:47.228Z,70944.00
2018-12-14T10:03:47.266Z,70336.00
2018-12-14T10:04:47.305Z,69664.00
2018-12-14T10:05:47.272Z,67040.00
2018-12-14T10:06:47.395Z,70048.00
2018-12-14T10:07:47.298Z,69696.00
2018-12-14T10:08:47.341Z,70080.00
2018-12-14T10:09:47.364Z,72928.00
2018-12-14T10:10:47.428Z,75840.00
2018-12-14T10:11:48.116Z,74016.00
2018-12-14T10:12:47.413Z,71520.00
2018-12-14T10:13:47.453Z,73408.00
2018-12-14T10:14:47.470Z,76352.00
2018-12-14T10:15:47.511Z,74528.00
2018-12-14T10:16:47.717Z,76640.00
2018-12-14T10:17:47.531Z,79680.00
2018-12-14T10:18:47.552Z,75680.00
2018-12-14T10:19:47.586Z,73568.00
2018-12-14T10:20:47.605Z,75904.00
2018-12-14T10:21:47.823Z,77344.00
2018-12-14T10:22:47.670Z,75968.00
2018-12-14T10:23:47.669Z,76480.00
2018-12-14T10:24:47.706Z,76832.00
2018-12-14T10:25:47.756Z,77408.00
2018-12-14T10:26:47.859Z,78112.00
2018-12-14T10:27:47.773Z,76288.00
2018-12-14T10:28:47.807Z,76768.00
2018-12-14T10:29:47.838Z,75328.00
2018-12-14T10:30:47.844Z,75488.00
2018-12-14T10:31:47.961Z,77760.00
2018-12-14T10:32:47.890Z,75616.00
2018-12-14T10:33:47.912Z,78624.00
2018-12-14T10:34:47.969Z,79648.00
2018-12-14T10:35:47.978Z,80864.00
2018-12-14T10:36:48.137Z,79584.00
2018-12-14T10:37:48.015Z,80576.00
2018-12-14T10:38:48.038Z,76192.00
2018-12-14T10:39:48.076Z,75712.00
2018-12-14T10:40:48.094Z,75648.00
2018-12-14T10:41:48.255Z,76192.00
2018-12-14T10:42:48.134Z,80032.00
2018-12-14T10:43:48.179Z,79424.00
2018-12-14T10:44:48.212Z,79776.00
2018-12-14T10:45:48.225Z,77568.00
2018-12-14T10:46:48.402Z,77664.00
2018-12-14T10:47:48.271Z,75456.00
2018-12-14T10:48:48.308Z,73632.00
2018-12-14T10:49:48.312Z,75840.00
2018-12-14T10:50:48.335Z,79488.00
2018-12-14T10:51:48.474Z,83072.00
2018-12-14T10:52:48.411Z,81440.00
2018-12-14T10:53:48.409Z,83712.00
2018-12-14T10:54:48.457Z,85248.00
2018-12-14T10:55:48.465Z,86048.00
2018-12-14T10:56:48.610Z,83776.00
2018-12-14T10:57:48.521Z,85600.00
2018-12-14T10:58:48.553Z,83072.00
2018-12-14T10:59:48.567Z,83680.00
2018-12-14T11:00:48.605Z,84736.00
2018-12-14T11:01:48.877Z,83520.00
2018-12-14T11:02:48.660Z,84096.00
2018-12-14T11:03:48.699Z,84608.00
2018-12-14T11:04:48.713Z,81344.00
2018-12-14T11:05:48.743Z,82720.00
2018-12-14T11:06:48.808Z,84896.00
2018-12-14T11:07:48.801Z,85120.00
2018-12-14T11:08:48.827Z,84672.00
2018-12-14T11:09:48.840Z,85792.00
2018-12-14T11:10:48.861Z,87392.00
2018-12-14T11:11:48.945Z,86496.00
2018-12-14T11:12:48.926Z,83552.00
2018-12-14T11:13:48.958Z,84096.00
2018-12-14T11:14:48.969Z,80736.00
2018-12-14T11:15:49.007Z,81984.00
2018-12-14T11:16:49.244Z,83072.00
2018-12-14T11:17:49.076Z,80416.00
2018-12-14T11:18:49.073Z,82624.00
2018-12-14T11:19:49.133Z,86112.00
2018-12-14T11:20:49.129Z,86496.00
2018-12-14T11:21:49.212Z,86560.00
2018-12-14T11:22:49.211Z,86752.00
2018-12-14T11:23:49.215Z,87200.00
2018-12-14T11:24:49.326Z,84192.00
2018-12-14T11:25:49.285Z,84864.00
2018-12-14T11:26:49.401Z,84352.00
2018-12-14T11:27:49.319Z,83392.00
2018-12-14T11:28:49.343Z,84448.00
2018-12-14T11:29:49.383Z,82336.00
2018-12-14T11:30:49.403Z,83744.00
2018-12-14T11:31:49.611Z,85088.00
2018-12-14T11:32:49.446Z,83584.00
2018-12-14T11:33:49.473Z,83744.00
2018-12-14T11:34:49.517Z,85888.00
2018-12-14T11:35:49.551Z,86528.00
2018-12-14T11:36:49.557Z,86624.00
2018-12-14T11:37:49.595Z,86016.00
2018-12-14T11:38:49.609Z,85120.00
2018-12-14T11:39:49.642Z,84896.00
2018-12-14T11:40:49.776Z,85920.00
2018-12-14T11:41:49.691Z,84160.00
2018-12-14T11:42:49.717Z,82368.00
2018-12-14T11:43:49.755Z,84064.00
2018-12-14T11:44:49.798Z,86592.00
2018-12-14T11:45:49.916Z,87360.00
2018-12-14T11:46:49.829Z,88416.00
2018-12-14T11:47:49.872Z,88320.00
2018-12-14T11:48:49.902Z,86624.00
2018-12-14T11:49:49.931Z,83648.00
2018-12-14T11:50:49.989Z,79968.00
2018-12-14T11:51:49.998Z,77920.00
2018-12-14T11:52:50.006Z,78464.00
2018-12-14T11:53:50.043Z,79456.00
2018-12-14T11:54:50.051Z,79584.00
2018-12-14T11:55:50.341Z,81472.00
2018-12-14T11:56:50.120Z,81344.00
2018-12-14T11:57:50.144Z,81728.00
2018-12-14T11:58:50.166Z,81344.00
2018-12-14T11:59:50.209Z,77984.00
2018-12-14T12:00:50.322Z,78784.00
2018-12-14T12:01:50.256Z,78816.00
2018-12-14T12:02:50.281Z,81120.00
2018-12-14T12:03:50.315Z,81696.00
2018-12-14T12:04:50.366Z,81344.00
2018-12-14T12:05:50.543Z,80672.00
2018-12-14T12:06:50.397Z,81024.00
2018-12-14T12:07:50.416Z,80192.00
2018-12-14T12:08:50.449Z,81088.00
2018-12-14T12:09:50.473Z,79168.00
2018-12-14T12:10:50.647Z,77792.00
2018-12-14T12:11:50.551Z,79872.00
2018-12-14T12:12:50.691Z,81056.00
2018-12-14T12:13:50.587Z,79712.00
2018-12-14T12:14:50.648Z,79680.00
2018-12-14T12:15:50.745Z,81568.00
2018-12-14T12:16:50.685Z,78624.00
2018-12-14T12:17:50.716Z,72000.00
2018-12-14T12:18:50.729Z,72032.00
2018-12-14T12:19:50.769Z,76896.00
2018-12-14T12:20:51.019Z,81664.00
2018-12-14T12:21:50.948Z,86080.00
2018-12-14T12:22:50.862Z,84992.00
2018-12-14T12:23:55.279Z,79680.00
2018-12-14T12:24:50.905Z,75296.00
2018-12-14T12:25:51.034Z,76736.00
2018-12-14T12:26:50.973Z,78752.00
2018-12-14T12:27:51.123Z,79136.00
2018-12-14T12:28:51.029Z,77408.00
2018-12-14T12:29:51.182Z,78432.00
2018-12-14T12:30:51.194Z,78304.00
2018-12-14T12:31:51.113Z,76928.00
2018-12-14T12:32:51.187Z,74848.00
2018-12-14T12:33:51.296Z,73792.00
2018-12-14T12:34:51.198Z,74912.00
2018-12-14T12:35:51.347Z,76384.00
2018-12-14T12:36:51.259Z,74048.00
2018-12-14T12:37:51.289Z,73056.00
2018-12-14T12:38:51.318Z,73856.00
2018-12-14T12:39:51.345Z,77824.00
2018-12-14T12:40:51.462Z,78496.00
2018-12-14T12:41:51.456Z,76096.00
2018-12-14T12:42:51.426Z,75584.00
2018-12-14T12:43:51.470Z,78720.00
2018-12-14T12:44:51.502Z,79840.00
2018-12-14T12:45:51.751Z,78432.00